Time,TemperatureF,DewpointF,PressureIn,WindDirection,WindDirectionDegrees,WindSpeedMPH,WindSpeedGustMPH,Humidity,HourlyPrecipIn,Conditions,Clouds,dailyrainin,SoftwareType,DateUTC
2013-10-10 00:01:00,55.2,54.4,30.06,East,94,0.0,1.0,97,0.00,,OVC034,0.00,VWS V14.01,2013-10-10 04:01:00,
2013-10-10 00:06:00,55.2,54.4,30.06,NW,309,0.0,2.0,97,0.00,,OVC034,0.00,VWS V14.01,2013-10-10 04:06:00,
2013-10-10 00:11:00,55.1,54.3,30.06,NW,307,0.0,1.0,97,0.00,,OVC034,0.00,VWS V14.01,2013-10-10 04:11:00,
2013-10-10 00:16:00,55.1,54.0,30.06,North,4,0.0,1.0,96,0.00,,OVC034,0.00,VWS V14.01,2013-10-10 04:16:00,
2013-10-10 00:21:00,55.1,54.0,30.05,North,352,0.0,2.0,96,0.00,,OVC034,0.00,VWS V14.01,2013-10-10 04:21:00,
2013-10-10 00:26:00,55.1,54.0,30.05,North,6,1.0,2.0,96,0.00,,OVC034,0.00,VWS V14.01,2013-10-10 04:26:00,
2013-10-10 00:31:00,55.1,54.0,30.05,WNW,289,0.0,1.0,96,0.00,,OVC034,0.00,VWS V14.01,2013-10-10 04:31:00,
2013-10-10 00:36:00,55.1,54.0,30.05,NW,324,1.0,2.0,96,0.00,,OVC034,0.00,VWS V14.01,2013-10-10 04:36:00,
2013-10-10 00:46:00,55.1,54.0,30.05,WNW,285,0.0,1.0,96,0.00,,OVC034,0.00,VWS V14.01,2013-10-10 04:46:00,
2013-10-10 00:51:00,55.1,54.0,30.05,North,349,0.0,2.0,96,0.00,,OVC034,0.00,VWS V14.01,2013-10-10 04:51:00,
2013-10-10 00:56:00,55.1,54.0,30.05,NNW,332,0.0,2.0,96,0.00,,OVC034,0.00,VWS V14.01,2013-10-10 04:56:00,
2013-10-10 01:01:00,55.0,53.9,30.05,WNW,288,0.0,2.0,96,0.00,,OVC034,0.00,VWS V14.01,2013-10-10 05:01:00,
2013-10-10 01:06:00,55.0,53.9,30.04,West,268,0.0,2.0,96,0.00,,OVC034,0.00,VWS V14.01,2013-10-10 05:06:00,
2013-10-10 01:11:00,55.0,53.9,30.04,NNW,348,0.0,1.0,96,0.00,,OVC034,0.00,VWS V14.01,2013-10-10 05:11:00,
2013-10-10 01:16:00,55.0,53.9,30.04,North,359,0.0,2.0,96,0.00,,OVC034,0.00,VWS V14.01,2013-10-10 05:16:00,
2013-10-10 01:21:00,55.0,53.9,30.04,NW,311,0.0,1.0,96,0.00,,OVC034,0.00,VWS V14.01,2013-10-10 05:21:00,
2013-10-10 01:26:00,55.0,53.9,30.04,NW,312,0.0,0.0,96,0.00,,OVC034,0.00,VWS V14.01,2013-10-10 05:26:00,
2013-10-10 01:51:00,54.9,53.8,30.03,WNW,300,1.0,4.0,96,0.00,,OVC034,0.00,VWS V14.01,2013-10-10 05:51:00,
2013-10-10 01:56:00,54.9,53.8,30.03,North,6,0.0,2.0,96,0.00,,OVC028,0.00,VWS V14.01,2013-10-10 05:56:00,
2013-10-10 02:01:00,54.9,53.5,30.03,NW,314,0.0,2.0,95,0.00,,OVC028,0.00,VWS V14.01,2013-10-10 06:01:00,
2013-10-10 02:06:00,54.9,53.5,30.03,NNE,32,0.0,4.0,95,0.00,,OVC028,0.00,VWS V14.01,2013-10-10 06:06:00,
2013-10-10 02:11:00,54.9,53.5,30.03,North,8,0.0,3.0,95,0.00,,OVC028,0.00,VWS V14.01,2013-10-10 06:11:00,
2013-10-10 02:16:00,55.0,53.6,30.02,NW,319,0.0,1.0,95,0.00,,OVC028,0.00,VWS V14.01,2013-10-10 06:16:00,
2013-10-10 02:21:00,55.0,53.6,30.02,East,91,1.0,2.0,95,0.00,,OVC028,0.00,VWS V14.01,2013-10-10 06:21:00,
2013-10-10 02:26:00,55.0,53.6,30.03,East,84,1.0,3.0,95,0.00,,OVC028,0.00,VWS V14.01,2013-10-10 06:26:00,
2013-10-10 02:31:00,55.0,53.6,30.02,North,3,1.0,2.0,95,0.00,,OVC028,0.00,VWS V14.01,2013-10-10 06:31:00,
2013-10-10 02:36:00,55.0,53.6,30.02,North,4,0.0,2.0,95,0.00,,OVC028,0.00,VWS V14.01,2013-10-10 06:36:00,
2013-10-10 02:41:00,55.0,53.6,30.02,West,264,0.0,1.0,95,0.00,,OVC028,0.00,VWS V14.01,2013-10-10 06:41:00,
2013-10-10 02:46:00,54.9,53.5,30.02,NNE,23,1.0,2.0,95,0.00,,OVC028,0.00,VWS V14.01,2013-10-10 06:46:00,
2013-10-10 02:56:00,54.8,53.4,30.02,NW,314,0.0,2.0,95,0.00,,OVC013,0.00,VWS V14.01,2013-10-10 06:56:00,
2013-10-10 03:01:00,54.8,53.4,30.01,NNE,23,0.0,3.0,95,0.00,,OVC013,0.00,VWS V14.01,2013-10-10 07:01:00,
2013-10-10 03:11:00,54.7,53.6,30.01,NW,308,0.0,1.0,96,0.01,,OVC013,0.01,VWS V14.01,2013-10-10 07:11:00,
2013-10-10 03:16:00,54.6,53.5,30.01,North,6,1.0,2.0,96,0.01,,OVC013,0.01,VWS V14.01,2013-10-10 07:16:00,
2013-10-10 03:26:00,54.5,53.4,30.01,NNW,329,0.0,0.0,96,0.02,,OVC013,0.02,VWS V14.01,2013-10-10 07:26:00,
2013-10-10 03:31:00,54.5,53.4,30.01,North,359,0.0,2.0,96,0.02,,OVC013,0.02,VWS V14.01,2013-10-10 07:31:00,
2013-10-10 03:41:00,54.4,53.6,30.00,North,358,0.0,1.0,97,0.02,,OVC013,0.02,VWS V14.01,2013-10-10 07:41:00,
2013-10-10 03:51:00,54.3,53.5,30.00,WSW,249,0.0,0.0,97,0.02,,OVC013,0.02,VWS V14.01,2013-10-10 07:51:00,
2013-10-10 03:56:00,54.3,53.5,30.00,NNW,330,0.0,3.0,97,0.02,,OVC013,0.02,VWS V14.01,2013-10-10 07:56:00,
2013-10-10 04:01:00,54.3,53.5,30.00,NNW,330,0.0,1.0,97,0.03,,OVC013,0.03,VWS V14.01,2013-10-10 08:01:00,
2013-10-10 04:06:00,54.3,53.5,30.00,ENE,64,0.0,1.0,97,0.03,,OVC013,0.03,VWS V14.01,2013-10-10 08:06:00,
2013-10-10 04:11:00,54.3,53.5,30.00,North,11,0.0,1.0,97,0.02,,OVC013,0.03,VWS V14.01,2013-10-10 08:11:00,
2013-10-10 04:16:00,54.3,53.5,30.00,NW,311,0.0,1.0,97,0.02,,OVC013,0.03,VWS V14.01,2013-10-10 08:16:00,
2013-10-10 04:26:00,54.3,53.5,30.00,NNE,18,0.0,1.0,97,0.01,,OVC013,0.03,VWS V14.01,2013-10-10 08:26:00,
2013-10-10 04:31:00,54.3,53.5,30.00,NW,307,0.0,1.0,97,0.01,,OVC013,0.03,VWS V14.01,2013-10-10 08:31:00,
2013-10-10 04:36:00,54.2,53.4,30.00,NW,319,0.0,0.0,97,0.01,,OVC013,0.03,VWS V14.01,2013-10-10 08:36:00,
2013-10-10 04:41:00,54.2,53.4,30.00,NW,304,0.0,1.0,97,0.02,,OVC013,0.04,VWS V14.01,2013-10-10 08:41:00,
2013-10-10 04:46:00,54.2,53.4,29.99,NW,305,0.0,1.0,97,0.03,,OVC013,0.05,VWS V14.01,2013-10-10 08:46:00,
2013-10-10 04:51:00,54.2,53.4,30.00,North,359,0.0,1.0,97,0.04,,OVC013,0.06,VWS V14.01,2013-10-10 08:51:00,
2013-10-10 04:56:00,54.2,53.4,30.00,North,359,0.0,1.0,97,0.04,,OVC013,0.06,VWS V14.01,2013-10-10 08:56:00,
2013-10-10 05:01:00,54.2,53.4,30.00,West,269,0.0,2.0,97,0.05,,OVC013,0.07,VWS V14.01,2013-10-10 09:01:00,
2013-10-10 05:06:00,54.1,53.3,30.00,West,269,0.0,1.0,97,0.05,,OVC013,0.08,VWS V14.01,2013-10-10 09:06:00,
2013-10-10 05:11:00,54.2,53.4,30.00,NNE,25,0.0,3.0,97,0.06,,OVC013,0.09,VWS V14.01,2013-10-10 09:11:00,
2013-10-10 05:16:00,54.2,53.4,30.00,North,8,0.0,1.0,97,0.07,,OVC013,0.10,VWS V14.01,2013-10-10 09:16:00,
2013-10-10 05:21:00,54.1,53.3,30.00,NNE,15,0.0,1.0,97,0.09,,OVC013,0.12,VWS V14.01,2013-10-10 09:21:00,
2013-10-10 05:26:00,54.1,53.3,29.99,WSW,257,0.0,1.0,97,0.13,,OVC013,0.16,VWS V14.01,2013-10-10 09:26:00,
2013-10-10 05:31:00,54.1,53.3,30.00,WSW,257,0.0,1.0,97,0.17,,OVC013,0.20,VWS V14.01,2013-10-10 09:31:00,
2013-10-10 05:36:00,54.0,53.2,30.00,WSW,258,0.0,1.0,97,0.20,,OVC013,0.23,VWS V14.01,2013-10-10 09:36:00,
2013-10-10 05:41:00,54.1,53.3,29.99,WSW,258,0.0,1.0,97,0.22,,OVC013,0.25,VWS V14.01,2013-10-10 09:41:00,
2013-10-10 05:46:00,54.0,53.2,30.00,West,262,0.0,1.0,97,0.21,,OVC013,0.25,VWS V14.01,2013-10-10 09:46:00,
2013-10-10 05:51:00,54.0,53.2,30.00,West,262,0.0,1.0,97,0.20,,OVC013,0.25,VWS V14.01,2013-10-10 09:51:00,
2013-10-10 05:56:00,54.1,53.5,30.00,WSW,257,0.0,1.0,98,0.20,,-RA,0.26,VWS V14.01,2013-10-10 09:56:00,
2013-10-10 06:01:00,54.0,53.5,30.00,WSW,257,0.0,0.0,98,0.20,,-RA,0.26,VWS V14.01,2013-10-10 10:01:00,
2013-10-10 06:06:00,54.1,53.5,30.00,WSW,257,0.0,1.0,98,0.19,,-RA,0.26,VWS V14.01,2013-10-10 10:06:00,
2013-10-10 06:11:00,54.1,53.5,30.00,WSW,257,0.0,1.0,98,0.18,,-RA,0.26,VWS V14.01,2013-10-10 10:11:00,
2013-10-10 06:16:00,54.1,53.5,30.00,West,259,0.0,1.0,98,0.17,,-RA,0.26,VWS V14.01,2013-10-10 10:16:00,
2013-10-10 06:21:00,54.1,53.5,30.00,WNW,285,0.0,1.0,98,0.16,,-RA,0.26,VWS V14.01,2013-10-10 10:21:00,
2013-10-10 06:26:00,54.1,53.5,30.00,WNW,285,0.0,1.0,98,0.14,,-RA,0.26,VWS V14.01,2013-10-10 10:26:00,
2013-10-10 06:31:00,54.1,53.5,30.00,WNW,295,0.0,1.0,98,0.10,,-RA,0.26,VWS V14.01,2013-10-10 10:31:00,
2013-10-10 06:36:00,54.1,53.5,30.00,WNW,295,0.0,1.0,98,0.06,,-RA,0.26,VWS V14.01,2013-10-10 10:36:00,
2013-10-10 06:41:00,54.1,53.5,30.00,WNW,295,0.0,1.0,98,0.03,,-RA,0.26,VWS V14.01,2013-10-10 10:41:00,
2013-10-10 06:46:00,54.1,53.5,30.00,WNW,295,0.0,1.0,98,0.01,,-RA,0.26,VWS V14.01,2013-10-10 10:46:00,
2013-10-10 06:51:00,54.1,53.5,30.00,WNW,295,0.0,1.0,98,0.01,,-RA,0.26,VWS V14.01,2013-10-10 10:51:00,
2013-10-10 06:56:00,54.1,53.5,30.00,WNW,295,0.0,1.0,98,0.01,,-RA,0.26,VWS V14.01,2013-10-10 10:56:00,
2013-10-10 07:01:00,54.1,53.5,30.00,WNW,295,0.0,1.0,98,0.00,,-RA,0.26,VWS V14.01,2013-10-10 11:01:00,
2013-10-10 07:06:00,54.2,53.7,30.00,WNW,295,0.0,1.0,98,0.00,,-RA,0.26,VWS V14.01,2013-10-10 11:06:00,
2013-10-10 07:11:00,54.2,53.7,30.00,NNW,347,0.0,1.0,98,0.00,,-RA,0.26,VWS V14.01,2013-10-10 11:11:00,
2013-10-10 07:16:00,54.2,53.7,30.00,NNW,347,0.0,1.0,98,0.00,,-RA,0.26,VWS V14.01,2013-10-10 11:16:00,
2013-10-10 07:21:00,54.2,53.7,30.00,North,7,0.0,1.0,98,0.00,,-RA,0.26,VWS V14.01,2013-10-10 11:21:00,
2013-10-10 07:26:00,54.3,53.8,30.00,NNW,335,0.0,2.0,98,0.00,,-RA,0.26,VWS V14.01,2013-10-10 11:26:00,
2013-10-10 07:31:00,54.2,53.7,30.00,WNW,295,1.0,1.0,98,0.00,,-RA,0.26,VWS V14.01,2013-10-10 11:31:00,
2013-10-10 07:36:00,54.3,53.8,30.00,NNE,18,0.0,2.0,98,0.00,,-RA,0.26,VWS V14.01,2013-10-10 11:36:00,
2013-10-10 07:41:00,54.3,53.8,30.00,North,9,0.0,1.0,98,0.00,,-RA,0.26,VWS V14.01,2013-10-10 11:41:00,
2013-10-10 07:46:00,54.4,53.8,30.00,North,358,0.0,1.0,98,0.00,,-RA,0.26,VWS V14.01,2013-10-10 11:46:00,
2013-10-10 07:51:00,54.4,53.8,30.00,North,358,0.0,1.0,98,0.00,,-RA,0.26,VWS V14.01,2013-10-10 11:51:00,
2013-10-10 07:56:00,54.4,53.8,30.00,NNE,13,0.0,2.0,98,0.00,,,0.26,VWS V14.01,2013-10-10 11:56:00,
2013-10-10 08:01:00,54.4,53.8,30.00,WNW,299,0.0,2.0,98,0.00,,,0.26,VWS V14.01,2013-10-10 12:01:00,
2013-10-10 08:06:00,54.5,54.0,30.00,WNW,299,0.0,1.0,98,0.00,,,0.26,VWS V14.01,2013-10-10 12:06:00,
2013-10-10 08:11:00,54.4,53.8,30.00,WNW,299,0.0,1.0,98,0.00,,,0.26,VWS V14.01,2013-10-10 12:11:00,
2013-10-10 08:16:00,54.5,54.0,30.00,North,354,0.0,1.0,98,0.00,,,0.26,VWS V14.01,2013-10-10 12:16:00,
2013-10-10 08:21:00,54.5,54.0,30.00,NW,309,0.0,1.0,98,0.00,,,0.26,VWS V14.01,2013-10-10 12:21:00,
2013-10-10 08:26:00,54.5,54.0,30.01,West,275,0.0,2.0,98,0.00,,,0.26,VWS V14.01,2013-10-10 12:26:00,
2013-10-10 08:31:00,54.5,54.0,30.00,West,275,0.0,1.0,98,0.00,,,0.26,VWS V14.01,2013-10-10 12:31:00,
2013-10-10 08:36:00,54.5,54.0,30.00,West,275,0.0,0.0,98,0.00,,,0.26,VWS V14.01,2013-10-10 12:36:00,
2013-10-10 08:41:00,54.6,54.0,30.01,West,275,0.0,1.0,98,0.00,,,0.26,VWS V14.01,2013-10-10 12:41:00,
2013-10-10 08:46:00,54.6,54.0,30.01,West,270,0.0,1.0,98,0.00,,,0.26,VWS V14.01,2013-10-10 12:46:00,
2013-10-10 08:51:00,54.6,54.0,30.01,West,270,0.0,1.0,98,0.00,,,0.26,VWS V14.01,2013-10-10 12:51:00,
2013-10-10 08:56:00,54.8,54.2,30.01,WSW,257,0.0,1.0,98,0.00,,,0.26,VWS V14.01,2013-10-10 12:56:00,
2013-10-10 09:01:00,54.8,54.2,30.01,WSW,257,0.0,1.0,98,0.00,,,0.26,VWS V14.01,2013-10-10 13:01:00,
2013-10-10 09:06:00,54.9,54.3,30.01,North,354,0.0,1.0,98,0.00,,,0.26,VWS V14.01,2013-10-10 13:06:00,
2013-10-10 09:11:00,54.9,54.3,30.01,NNW,343,0.0,1.0,98,0.00,,,0.26,VWS V14.01,2013-10-10 13:11:00,
2013-10-10 09:21:00,54.9,54.3,30.01,SSW,210,1.0,2.0,98,0.00,,,0.26,VWS V14.01,2013-10-10 13:21:00,
2013-10-10 09:26:00,54.9,54.3,30.01,West,281,0.0,2.0,98,0.00,,,0.26,VWS V14.01,2013-10-10 13:26:00,
2013-10-10 09:31:00,54.9,54.3,30.01,West,281,0.0,1.0,98,0.00,,,0.26,VWS V14.01,2013-10-10 13:31:00,
2013-10-10 09:36:00,55.0,54.5,30.01,West,272,0.0,1.0,98,0.00,,,0.26,VWS V14.01,2013-10-10 13:36:00,
2013-10-10 09:41:00,55.0,54.5,30.01,NNW,347,0.0,1.0,98,0.00,,,0.26,VWS V14.01,2013-10-10 13:41:00,
2013-10-10 09:46:00,55.0,54.5,30.01,NW,320,0.0,1.0,98,0.00,,,0.26,VWS V14.01,2013-10-10 13:46:00,
2013-10-10 09:51:00,55.0,54.5,30.01,NW,320,0.0,0.0,98,0.00,,,0.26,VWS V14.01,2013-10-10 13:51:00,
2013-10-10 09:56:00,55.0,54.5,30.01,NW,312,0.0,1.0,98,0.00,,,0.26,VWS V14.01,2013-10-10 13:56:00,
2013-10-10 10:01:00,55.0,54.5,30.01,WSW,240,0.0,1.0,98,0.00,,,0.26,VWS V14.01,2013-10-10 14:01:00,
2013-10-10 10:06:00,55.1,54.5,30.00,WSW,240,0.0,1.0,98,0.00,,,0.26,VWS V14.01,2013-10-10 14:06:00,
2013-10-10 10:11:00,55.1,54.5,30.00,WSW,239,0.0,0.0,98,0.00,,,0.26,VWS V14.01,2013-10-10 14:11:00,
2013-10-10 10:16:00,55.3,54.8,30.00,WSW,240,0.0,1.0,98,0.00,,,0.26,VWS V14.01,2013-10-10 14:16:00,
2013-10-10 10:21:00,55.3,54.8,30.00,WSW,242,0.0,1.0,98,0.00,,,0.26,VWS V14.01,2013-10-10 14:21:00,
2013-10-10 10:26:00,55.4,54.8,30.00,WSW,242,0.0,1.0,98,0.00,,,0.26,VWS V14.01,2013-10-10 14:26:00,
2013-10-10 10:31:00,55.6,55.0,30.00,WSW,242,0.0,1.0,98,0.00,,,0.26,VWS V14.01,2013-10-10 14:31:00,
2013-10-10 10:36:00,55.6,55.0,30.00,NNE,21,0.0,1.0,98,0.00,,,0.26,VWS V14.01,2013-10-10 14:36:00,
2013-10-10 10:41:00,55.7,55.2,30.01,North,354,0.0,1.0,98,0.00,,,0.26,VWS V14.01,2013-10-10 14:41:00,
2013-10-10 10:46:00,55.7,55.2,30.01,NW,325,0.0,1.0,98,0.00,,,0.26,VWS V14.01,2013-10-10 14:46:00,
2013-10-10 10:51:00,55.8,55.2,30.00,West,274,0.0,1.0,98,0.00,,,0.26,VWS V14.01,2013-10-10 14:51:00,
2013-10-10 10:56:00,55.8,55.0,30.00,North,357,0.0,1.0,97,0.00,,OVC006,0.26,VWS V14.01,2013-10-10 14:56:00,
2013-10-10 11:01:00,55.8,55.0,30.00,WSW,243,1.0,1.0,97,0.00,,OVC006,0.26,VWS V14.01,2013-10-10 15:01:00,
2013-10-10 11:06:00,55.8,55.0,30.00,WSW,253,0.0,1.0,97,0.00,,OVC006,0.26,VWS V14.01,2013-10-10 15:06:00,
2013-10-10 11:11:00,55.9,55.1,30.00,WSW,253,0.0,1.0,97,0.00,,OVC006,0.26,VWS V14.01,2013-10-10 15:11:00,
2013-10-10 11:16:00,55.9,55.1,30.00,WSW,253,0.0,0.0,97,0.00,,OVC006,0.26,VWS V14.01,2013-10-10 15:16:00,
2013-10-10 11:21:00,56.0,55.2,30.00,WSW,253,0.0,0.0,97,0.00,,OVC006,0.26,VWS V14.01,2013-10-10 15:21:00,
2013-10-10 11:26:00,56.1,55.3,30.00,SW,220,0.0,0.0,97,0.00,,OVC006,0.26,VWS V14.01,2013-10-10 15:26:00,
2013-10-10 11:31:00,56.2,55.4,30.00,WSW,252,0.0,0.0,97,0.00,,OVC006,0.26,VWS V14.01,2013-10-10 15:31:00,
2013-10-10 11:36:00,56.3,55.5,30.00,WNW,300,0.0,0.0,97,0.00,,OVC006,0.26,VWS V14.01,2013-10-10 15:36:00,
2013-10-10 11:41:00,56.2,55.4,30.00,NW,315,0.0,1.0,97,0.00,,OVC006,0.26,VWS V14.01,2013-10-10 15:41:00,
2013-10-10 11:46:00,56.3,55.5,30.00,NW,304,1.0,1.0,97,0.00,,OVC006,0.26,VWS V14.01,2013-10-10 15:46:00,
2013-10-10 11:51:00,56.3,55.5,30.00,NNW,338,0.0,2.0,97,0.00,,OVC006,0.26,VWS V14.01,2013-10-10 15:51:00,
2013-10-10 11:56:00,56.3,55.2,30.00,NW,324,0.0,2.0,96,0.00,,,0.26,VWS V14.01,2013-10-10 15:56:00,
2013-10-10 12:01:00,56.4,55.3,30.00,North,359,0.0,2.0,96,0.00,,,0.26,VWS V14.01,2013-10-10 16:01:00,
2013-10-10 12:06:00,56.5,55.4,30.00,SW,236,1.0,1.0,96,0.00,,,0.26,VWS V14.01,2013-10-10 16:06:00,
2013-10-10 12:11:00,56.6,55.5,30.00,NW,307,0.0,2.0,96,0.00,,,0.26,VWS V14.01,2013-10-10 16:11:00,
2013-10-10 12:16:00,56.7,55.6,30.00,NW,308,0.0,1.0,96,0.00,,,0.26,VWS V14.01,2013-10-10 16:16:00,
2013-10-10 12:21:00,56.7,55.3,30.00,WSW,240,1.0,1.0,95,0.00,,,0.26,VWS V14.01,2013-10-10 16:21:00,
2013-10-10 12:26:00,56.8,55.7,30.00,West,268,0.0,1.0,96,0.00,,,0.26,VWS V14.01,2013-10-10 16:26:00,
2013-10-10 12:31:00,56.9,55.8,30.00,WSW,243,0.0,3.0,96,0.00,,,0.26,VWS V14.01,2013-10-10 16:31:00,
2013-10-10 12:36:00,57.0,55.9,29.99,West,269,0.0,1.0,96,0.00,,,0.26,VWS V14.01,2013-10-10 16:36:00,
2013-10-10 12:41:00,57.1,55.7,29.99,NW,304,0.0,2.0,95,0.00,,,0.26,VWS V14.01,2013-10-10 16:41:00,
2013-10-10 12:46:00,57.2,55.8,29.99,WNW,290,0.0,2.0,95,0.00,,,0.26,VWS V14.01,2013-10-10 16:46:00,
2013-10-10 12:56:00,57.2,55.8,29.99,SW,220,0.0,1.0,95,0.00,,OVC008,0.26,VWS V14.01,2013-10-10 16:56:00,
2013-10-10 13:01:00,57.2,55.8,29.99,WNW,290,0.0,3.0,95,0.00,,OVC008,0.26,VWS V14.01,2013-10-10 17:01:00,
2013-10-10 13:11:00,57.3,55.9,29.98,West,281,1.0,1.0,95,0.00,,OVC008,0.26,VWS V14.01,2013-10-10 17:11:00,
2013-10-10 13:16:00,57.4,56.0,29.98,NW,309,1.0,1.0,95,0.00,,OVC008,0.26,VWS V14.01,2013-10-10 17:16:00,
2013-10-10 13:21:00,57.4,56.0,29.97,North,351,0.0,1.0,95,0.00,,OVC008,0.26,VWS V14.01,2013-10-10 17:21:00,
2013-10-10 13:26:00,57.4,56.0,29.97,WNW,295,0.0,1.0,95,0.00,,OVC008,0.26,VWS V14.01,2013-10-10 17:26:00,
2013-10-10 13:31:00,57.5,56.1,29.97,West,272,0.0,1.0,95,0.00,,OVC008,0.26,VWS V14.01,2013-10-10 17:31:00,
2013-10-10 13:36:00,57.6,56.2,29.97,NNE,13,0.0,3.0,95,0.00,,OVC008,0.26,VWS V14.01,2013-10-10 17:36:00,
2013-10-10 13:41:00,57.6,55.9,29.97,WNW,303,0.0,2.0,94,0.00,,OVC008,0.26,VWS V14.01,2013-10-10 17:41:00,
2013-10-10 13:46:00,57.7,56.3,29.97,West,261,0.0,1.0,95,0.00,,OVC008,0.26,VWS V14.01,2013-10-10 17:46:00,
2013-10-10 13:51:00,57.8,56.4,29.96,WNW,298,0.0,1.0,95,0.00,,OVC008,0.26,VWS V14.01,2013-10-10 17:51:00,
2013-10-10 13:56:00,57.9,56.5,29.96,West,267,1.0,3.0,95,0.00,,OVC009,0.26,VWS V14.01,2013-10-10 17:56:00,
2013-10-10 14:01:00,58.0,56.6,29.95,SW,232,0.0,1.0,95,0.00,,OVC009,0.26,VWS V14.01,2013-10-10 18:01:00,
2013-10-10 14:11:00,58.1,56.4,29.96,SW,219,0.0,1.0,94,0.00,,OVC009,0.26,VWS V14.01,2013-10-10 18:11:00,
2013-10-10 14:16:00,58.1,56.4,29.95,NE,41,0.0,2.0,94,0.00,,OVC009,0.26,VWS V14.01,2013-10-10 18:16:00,
2013-10-10 14:21:00,58.2,56.5,29.95,NE,41,0.0,1.0,94,0.00,,OVC009,0.26,VWS V14.01,2013-10-10 18:21:00,
2013-10-10 14:26:00,58.3,56.6,29.95,North,355,0.0,1.0,94,0.00,,OVC009,0.26,VWS V14.01,2013-10-10 18:26:00,
2013-10-10 14:31:00,58.3,56.6,29.95,West,263,0.0,1.0,94,0.00,,OVC009,0.26,VWS V14.01,2013-10-10 18:31:00,
2013-10-10 14:36:00,58.3,56.6,29.95,North,1,1.0,1.0,94,0.00,,OVC009,0.26,VWS V14.01,2013-10-10 18:36:00,
2013-10-10 14:41:00,58.3,56.6,29.95,West,271,2.0,2.0,94,0.00,,OVC009,0.26,VWS V14.01,2013-10-10 18:41:00,
2013-10-10 14:51:00,58.3,56.9,29.95,WSW,242,0.0,2.0,95,0.00,,OVC009,0.26,VWS V14.01,2013-10-10 18:51:00,
2013-10-10 14:56:00,58.2,56.8,29.95,WNW,288,0.0,2.0,95,0.00,,OVC008,0.26,VWS V14.01,2013-10-10 18:56:00,
2013-10-10 15:01:00,58.2,56.8,29.95,WSW,245,2.0,2.0,95,0.00,,OVC008,0.26,VWS V14.01,2013-10-10 19:01:00,
2013-10-10 15:11:00,58.2,56.8,29.95,North,2,0.0,2.0,95,0.00,,OVC008,0.26,VWS V14.01,2013-10-10 19:11:00,
2013-10-10 15:16:00,58.2,56.8,29.95,North,4,1.0,1.0,95,0.00,,OVC008,0.26,VWS V14.01,2013-10-10 19:16:00,
2013-10-10 15:21:00,58.3,56.9,29.95,NW,316,0.0,2.0,95,0.00,,OVC008,0.26,VWS V14.01,2013-10-10 19:21:00,
2013-10-10 15:26:00,58.3,56.9,29.95,West,262,0.0,1.0,95,0.00,,OVC008,0.26,VWS V14.01,2013-10-10 19:26:00,
2013-10-10 15:31:00,58.3,56.9,29.95,WNW,291,0.0,2.0,95,0.00,,OVC008,0.26,VWS V14.01,2013-10-10 19:31:00,
2013-10-10 15:36:00,58.4,57.0,29.95,NNW,331,0.0,2.0,95,0.00,,OVC008,0.26,VWS V14.01,2013-10-10 19:36:00,
2013-10-10 15:41:00,58.4,57.0,29.95,NNW,331,0.0,1.0,95,0.00,,OVC008,0.26,VWS V14.01,2013-10-10 19:41:00,
2013-10-10 15:46:00,58.5,57.1,29.95,NNW,331,0.0,1.0,95,0.00,,OVC008,0.26,VWS V14.01,2013-10-10 19:46:00,
2013-10-10 15:51:00,58.5,57.1,29.94,NNE,13,1.0,2.0,95,0.00,,OVC008,0.26,VWS V14.01,2013-10-10 19:51:00,
2013-10-10 15:56:00,58.6,57.2,29.94,East,86,1.0,1.0,95,0.00,,OVC008,0.26,VWS V14.01,2013-10-10 19:56:00,
2013-10-10 16:01:00,58.7,57.3,29.94,East,85,0.0,1.0,95,0.00,,OVC008,0.26,VWS V14.01,2013-10-10 20:01:00,
2013-10-10 16:11:00,58.8,57.4,29.94,West,264,0.0,2.0,95,0.00,,OVC008,0.26,VWS V14.01,2013-10-10 20:11:00,
2013-10-10 16:16:00,58.9,57.5,29.94,West,264,0.0,1.0,95,0.00,,OVC008,0.26,VWS V14.01,2013-10-10 20:16:00,
2013-10-10 16:21:00,59.0,57.6,29.94,WNW,295,0.0,1.0,95,0.00,,OVC008,0.26,VWS V14.01,2013-10-10 20:21:00,
2013-10-10 16:26:00,59.1,57.7,29.94,WNW,297,0.0,2.0,95,0.00,,OVC008,0.26,VWS V14.01,2013-10-10 20:26:00,
2013-10-10 16:31:00,59.3,57.9,29.94,WNW,299,0.0,1.0,95,0.00,,OVC008,0.26,VWS V14.01,2013-10-10 20:31:00,
2013-10-10 16:36:00,59.3,57.9,29.94,NW,321,0.0,1.0,95,0.00,,OVC008,0.26,VWS V14.01,2013-10-10 20:36:00,
2013-10-10 16:41:00,59.4,58.0,29.94,NW,321,0.0,1.0,95,0.00,,OVC008,0.26,VWS V14.01,2013-10-10 20:41:00,
2013-10-10 16:46:00,59.5,58.1,29.94,North,356,0.0,1.0,95,0.00,,OVC008,0.26,VWS V14.01,2013-10-10 20:46:00,
2013-10-10 16:51:00,59.5,58.1,29.94,North,4,0.0,2.0,95,0.00,,OVC008,0.26,VWS V14.01,2013-10-10 20:51:00,
2013-10-10 16:56:00,59.6,58.2,29.94,WSW,242,0.0,1.0,95,0.00,,OVC008,0.26,VWS V14.01,2013-10-10 20:56:00,
2013-10-10 17:01:00,59.5,58.1,29.94,WNW,303,1.0,1.0,95,0.00,,OVC008,0.26,VWS V14.01,2013-10-10 21:01:00,
2013-10-10 17:11:00,59.4,58.3,29.94,West,269,0.0,1.0,96,0.01,,OVC010,0.27,VWS V14.01,2013-10-10 21:11:00,
2013-10-10 17:16:00,59.4,58.3,29.94,West,269,0.0,1.0,96,0.01,,OVC010,0.27,VWS V14.01,2013-10-10 21:16:00,
2013-10-10 17:21:00,59.3,58.2,29.94,WSW,252,0.0,1.0,96,0.02,,OVC010,0.28,VWS V14.01,2013-10-10 21:21:00,
2013-10-10 17:26:00,59.3,58.5,29.94,WSW,252,0.0,1.0,97,0.02,,OVC010,0.28,VWS V14.01,2013-10-10 21:26:00,
2013-10-10 17:31:00,59.2,58.3,29.94,WSW,252,0.0,1.0,97,0.02,,OVC010,0.28,VWS V14.01,2013-10-10 21:31:00,
2013-10-10 17:36:00,59.2,58.3,29.94,WSW,250,0.0,1.0,97,0.03,,OVC010,0.29,VWS V14.01,2013-10-10 21:36:00,
2013-10-10 17:41:00,59.2,58.3,29.93,WSW,251,0.0,1.0,97,0.03,,OVC010,0.29,VWS V14.01,2013-10-10 21:41:00,
2013-10-10 17:46:00,59.2,58.3,29.94,WSW,251,0.0,1.0,97,0.03,,OVC010,0.29,VWS V14.01,2013-10-10 21:46:00,
2013-10-10 17:56:00,59.2,58.3,29.94,North,1,0.0,2.0,97,0.03,,OVC010,0.29,VWS V14.01,2013-10-10 21:56:00,
2013-10-10 18:01:00,59.2,58.3,29.94,North,349,0.0,2.0,97,0.03,,OVC010,0.29,VWS V14.01,2013-10-10 22:01:00,
2013-10-10 18:11:00,59.2,58.3,29.94,North,349,0.0,0.0,97,0.03,,OVC010,0.29,VWS V14.01,2013-10-10 22:11:00,
2013-10-10 18:16:00,59.2,58.3,29.94,NNW,336,0.0,0.0,97,0.02,,OVC010,0.29,VWS V14.01,2013-10-10 22:16:00,
2013-10-10 18:21:00,59.1,58.2,29.94,NNW,338,0.0,1.0,97,0.02,,OVC010,0.29,VWS V14.01,2013-10-10 22:21:00,
2013-10-10 18:26:00,59.1,58.2,29.94,NNW,338,0.0,1.0,97,0.01,,OVC010,0.29,VWS V14.01,2013-10-10 22:26:00,
2013-10-10 18:31:00,59.1,58.2,29.94,NNW,338,0.0,1.0,97,0.01,,OVC010,0.29,VWS V14.01,2013-10-10 22:31:00,
2013-10-10 18:36:00,59.1,58.2,29.94,North,7,0.0,1.0,97,0.01,,OVC010,0.29,VWS V14.01,2013-10-10 22:36:00,
2013-10-10 18:41:00,59.1,58.2,29.94,North,6,0.0,1.0,97,0.00,,OVC010,0.29,VWS V14.01,2013-10-10 22:41:00,
2013-10-10 18:46:00,59.1,58.2,29.95,West,263,0.0,1.0,97,0.00,,OVC010,0.29,VWS V14.01,2013-10-10 22:46:00,
2013-10-10 18:51:00,59.2,58.3,29.94,West,262,0.0,0.0,97,0.00,,OVC010,0.29,VWS V14.01,2013-10-10 22:51:00,
2013-10-10 18:56:00,59.2,58.3,29.94,SW,219,0.0,0.0,97,0.00,,OVC010,0.29,VWS V14.01,2013-10-10 22:56:00,
2013-10-10 19:01:00,59.2,58.3,29.94,WSW,244,0.0,1.0,97,0.00,,OVC010,0.29,VWS V14.01,2013-10-10 23:01:00,
2013-10-10 19:11:00,59.2,58.3,29.94,WSW,244,0.0,0.0,97,0.00,,OVC010,0.29,VWS V14.01,2013-10-10 23:11:00,
2013-10-10 19:16:00,59.2,58.3,29.94,NE,48,0.0,1.0,97,0.00,,OVC010,0.29,VWS V14.01,2013-10-10 23:16:00,
2013-10-10 19:21:00,59.2,58.3,29.94,NE,48,0.0,0.0,97,0.00,,OVC010,0.29,VWS V14.01,2013-10-10 23:21:00,
2013-10-10 19:26:00,59.2,58.3,29.94,NE,48,0.0,1.0,97,0.00,,OVC010,0.29,VWS V14.01,2013-10-10 23:26:00,
2013-10-10 19:31:00,59.2,58.3,29.94,NE,48,0.0,1.0,97,0.00,,OVC010,0.29,VWS V14.01,2013-10-10 23:31:00,
2013-10-10 19:36:00,59.2,58.3,29.94,NE,48,0.0,0.0,97,0.00,,OVC010,0.29,VWS V14.01,2013-10-10 23:36:00,
2013-10-10 19:41:00,59.2,58.3,29.94,SSW,194,0.0,1.0,97,0.00,,OVC010,0.29,VWS V14.01,2013-10-10 23:41:00,
2013-10-10 19:51:00,59.3,58.5,29.94,SSW,194,0.0,0.0,97,0.00,,OVC010,0.29,VWS V14.01,2013-10-10 23:51:00,
2013-10-10 19:56:00,59.3,58.5,29.94,SSW,194,0.0,0.0,97,0.00,,OVC010,0.29,VWS V14.01,2013-10-10 23:56:00,
2013-10-10 20:01:00,59.3,58.5,29.94,SSW,197,0.0,0.0,97,0.00,,OVC010,0.29,VWS V14.01,2013-10-11 00:01:00,
2013-10-10 20:06:00,59.4,58.5,29.93,WSW,243,0.0,1.0,97,0.00,,OVC010,0.29,VWS V14.01,2013-10-11 00:06:00,
2013-10-10 20:11:00,59.4,58.5,29.93,WSW,243,0.0,0.0,97,0.00,,OVC010,0.29,VWS V14.01,2013-10-11 00:11:00,
2013-10-10 20:21:00,59.4,58.5,29.93,SW,235,0.0,1.0,97,0.00,,OVC010,0.29,VWS V14.01,2013-10-11 00:21:00,
2013-10-10 20:31:00,59.4,58.5,29.93,SW,235,0.0,1.0,97,0.00,,OVC010,0.29,VWS V14.01,2013-10-11 00:31:00,
2013-10-10 20:36:00,59.5,58.7,29.93,NNE,17,1.0,1.0,97,0.00,,OVC010,0.29,VWS V14.01,2013-10-11 00:36:00,
2013-10-10 20:41:00,59.5,58.7,29.93,NNE,16,0.0,1.0,97,0.00,,OVC010,0.29,VWS V14.01,2013-10-11 00:41:00,
2013-10-10 20:46:00,59.5,58.7,29.93,NNE,16,0.0,1.0,97,0.00,,OVC010,0.29,VWS V14.01,2013-10-11 00:46:00,
2013-10-10 20:56:00,59.6,58.8,29.93,NNE,16,0.0,0.0,97,0.00,,OVC022,0.29,VWS V14.01,2013-10-11 00:56:00,
2013-10-10 21:01:00,59.6,58.8,29.93,NE,49,0.0,3.0,97,0.00,,OVC022,0.29,VWS V14.01,2013-10-11 01:01:00,
2013-10-10 21:06:00,59.7,58.8,29.93,NE,49,0.0,1.0,97,0.00,,OVC022,0.29,VWS V14.01,2013-10-11 01:06:00,
2013-10-10 21:16:00,59.7,58.8,29.94,West,279,0.0,1.0,97,0.00,,OVC022,0.29,VWS V14.01,2013-10-11 01:16:00,
2013-10-10 21:26:00,59.6,58.8,29.94,West,279,0.0,0.0,97,0.00,,OVC022,0.29,VWS V14.01,2013-10-11 01:26:00,
2013-10-10 21:31:00,59.7,58.8,29.94,West,280,0.0,0.0,97,0.00,,OVC022,0.29,VWS V14.01,2013-10-11 01:31:00,
2013-10-10 21:41:00,59.6,58.8,29.94,West,264,0.0,0.0,97,0.00,,OVC022,0.29,VWS V14.01,2013-10-11 01:41:00,
2013-10-10 21:51:00,59.6,58.8,29.94,WSW,248,0.0,1.0,97,0.00,,OVC022,0.29,VWS V14.01,2013-10-11 01:51:00,
2013-10-10 22:01:00,59.6,58.8,29.94,WSW,248,0.0,1.0,97,0.00,,,0.29,VWS V14.01,2013-10-11 02:01:00,
2013-10-10 22:11:00,59.6,58.8,29.94,North,354,0.0,1.0,97,0.00,,,0.29,VWS V14.01,2013-10-11 02:11:00,
2013-10-10 22:16:00,59.6,58.8,29.94,North,354,0.0,1.0,97,0.00,,,0.29,VWS V14.01,2013-10-11 02:16:00,
2013-10-10 22:21:00,59.6,58.8,29.94,North,354,0.0,0.0,97,0.00,,,0.29,VWS V14.01,2013-10-11 02:21:00,
2013-10-10 22:31:00,59.6,58.8,29.94,NNW,346,0.0,1.0,97,0.00,,,0.29,VWS V14.01,2013-10-11 02:31:00,
2013-10-10 22:36:00,59.6,58.8,29.94,WSW,242,0.0,1.0,97,0.00,,,0.29,VWS V14.01,2013-10-11 02:36:00,
2013-10-10 22:41:00,59.6,58.8,29.94,WSW,243,0.0,1.0,97,0.00,,,0.29,VWS V14.01,2013-10-11 02:41:00,
2013-10-10 22:46:00,59.5,58.7,29.94,NNW,345,1.0,2.0,97,0.00,,,0.29,VWS V14.01,2013-10-11 02:46:00,
2013-10-10 22:56:00,59.6,58.8,29.94,North,11,1.0,1.0,97,0.00,,,0.29,VWS V14.01,2013-10-11 02:56:00,
2013-10-10 23:01:00,59.6,58.8,29.94,North,11,0.0,1.0,97,0.00,,,0.29,VWS V14.01,2013-10-11 03:01:00,
2013-10-10 23:11:00,59.6,58.8,29.94,North,11,0.0,1.0,97,0.00,,,0.29,VWS V14.01,2013-10-11 03:11:00,
2013-10-10 23:16:00,59.6,58.8,29.93,NNE,13,0.0,1.0,97,0.00,,,0.29,VWS V14.01,2013-10-11 03:16:00,
2013-10-10 23:21:00,59.6,58.8,29.93,NNE,13,0.0,1.0,97,0.00,,,0.29,VWS V14.01,2013-10-11 03:21:00,
2013-10-10 23:31:00,59.6,58.8,29.93,NW,326,0.0,1.0,97,0.00,,,0.29,VWS V14.01,2013-10-11 03:31:00,
2013-10-10 23:36:00,59.7,58.6,29.93,NW,326,0.0,0.0,96,0.00,,,0.29,VWS V14.01,2013-10-11 03:36:00,
2013-10-10 23:41:00,59.7,58.6,29.93,NNW,327,0.0,1.0,96,0.00,,,0.29,VWS V14.01,2013-10-11 03:41:00,
2013-10-10 23:46:00,59.7,58.8,29.93,NW,326,0.0,1.0,97,0.00,,,0.29,VWS V14.01,2013-10-11 03:46:00,
2013-10-10 23:51:00,59.7,58.8,29.92,NW,326,0.0,0.0,97,0.00,,,0.29,VWS V14.01,2013-10-11 03:51:00,
2013-10-10 23:56:00,59.7,58.8,29.93,NNW,327,0.0,1.0,97,0.00,,OVC026,0.29,VWS V14.01,2013-10-11 03:56:00,